sensor_id;sensor_type;location;lat;lon;timestamp;P1;durP1;ratioP1;P2;durP2;ratioP2
71902;SDS011;59778;50.310;18.780;2023-10-09T00:11:21;51.17;;;17.23;;
71902;SDS011;59778;50.310;18.780;2023-10-09T00:26:47;50.27;;;16.27;;
71902;SDS011;59778;50.310;18.780;2023-10-09T00:42:09;46.63;;;15.07;;
71902;SDS011;59778;50.310;18.780;2023-10-09T00:57:33;37.17;;;13.43;;
71902;SDS011;59778;50.310;18.780;2023-10-09T01:12:58;72.77;;;21.87;;
71902;SDS011;59778;50.310;18.780;2023-10-09T01:28:19;38.20;;;14.67;;
71902;SDS011;59778;50.310;18.780;2023-10-09T01:43:41;30.87;;;12.47;;
71902;SDS011;59778;50.310;18.780;2023-10-09T01:59:06;31.20;;;10.97;;
71902;SDS011;59778;50.310;18.780;2023-10-09T02:14:30;37.67;;;16.47;;
71902;SDS011;59778;50.310;18.780;2023-10-09T02:29:51;29.13;;;12.27;;
71902;SDS011;59778;50.310;18.780;2023-10-09T02:45:13;32.37;;;13.50;;
71902;SDS011;59778;50.310;18.780;2023-10-09T03:00:37;31.23;;;12.47;;
71902;SDS011;59778;50.310;18.780;2023-10-09T03:15:58;66.13;;;22.17;;
71902;SDS011;59778;50.310;18.780;2023-10-09T03:31:20;42.70;;;16.90;;
71902;SDS011;59778;50.310;18.780;2023-10-09T03:46:42;64.20;;;23.20;;
71902;SDS011;59778;50.310;18.780;2023-10-09T04:02:05;37.40;;;14.87;;
71902;SDS011;59778;50.310;18.780;2023-10-09T04:17:28;29.77;;;10.77;;
71902;SDS011;59778;50.310;18.780;2023-10-09T04:32:55;27.53;;;12.37;;
71902;SDS011;59778;50.310;18.780;2023-10-09T04:48:20;27.10;;;11.33;;
71902;SDS011;59778;50.310;18.780;2023-10-09T05:03:54;34.77;;;12.13;;
71902;SDS011;59778;50.310;18.780;2023-10-09T05:19:17;27.03;;;10.27;;
71902;SDS011;59778;50.310;18.780;2023-10-09T05:34:57;15.43;;;6.93;;
71902;SDS011;59778;50.310;18.780;2023-10-09T05:50:26;11.83;;;4.93;;
71902;SDS011;59778;50.310;18.780;2023-10-09T06:05:53;17.17;;;6.27;;
71902;SDS011;59778;50.310;18.780;2023-10-09T06:21:14;15.40;;;4.80;;
71902;SDS011;59778;50.310;18.780;2023-10-09T06:36:54;11.47;;;4.40;;
71902;SDS011;59778;50.310;18.780;2023-10-09T06:52:15;12.50;;;4.17;;
71902;SDS011;59778;50.310;18.780;2023-10-09T07:07:36;14.43;;;4.73;;
71902;SDS011;59778;50.310;18.780;2023-10-09T07:23:11;15.33;;;5.20;;
71902;SDS011;59778;50.310;18.780;2023-10-09T07:38:35;13.37;;;5.20;;
71902;SDS011;59778;50.310;18.780;2023-10-09T07:53:57;17.70;;;5.77;;
71902;SDS011;59778;50.310;18.780;2023-10-09T08:09:18;11.00;;;4.50;;
71902;SDS011;59778;50.310;18.780;2023-10-09T08:24:59;15.83;;;6.57;;
71902;SDS011;59778;50.310;18.780;2023-10-09T08:40:32;16.70;;;5.57;;
71902;SDS011;59778;50.310;18.780;2023-10-09T08:55:54;14.83;;;4.80;;
71902;SDS011;59778;50.310;18.780;2023-10-09T09:11:16;13.10;;;5.43;;
71902;SDS011;59778;50.310;18.780;2023-10-09T09:26:44;17.80;;;6.43;;
71902;SDS011;59778;50.310;18.780;2023-10-09T09:42:08;12.20;;;5.33;;
71902;SDS011;59778;50.310;18.780;2023-10-09T09:57:34;34.33;;;13.97;;
71902;SDS011;59778;50.310;18.780;2023-10-09T10:13:00;15.07;;;6.70;;
71902;SDS011;59778;50.310;18.780;2023-10-09T10:28:22;12.23;;;4.80;;
71902;SDS011;59778;50.310;18.780;2023-10-09T10:43:57;19.10;;;8.00;;
71902;SDS011;59778;50.310;18.780;2023-10-09T10:59:21;14.37;;;6.83;;
71902;SDS011;59778;50.310;18.780;2023-10-09T11:14:46;12.50;;;5.90;;
71902;SDS011;59778;50.310;18.780;2023-10-09T11:30:32;12.00;;;5.83;;
71902;SDS011;59778;50.310;18.780;2023-10-09T11:45:53;10.70;;;5.40;;
71902;SDS011;59778;50.310;18.780;2023-10-09T12:01:21;13.07;;;6.30;;
71902;SDS011;59778;50.310;18.780;2023-10-09T12:16:42;17.33;;;7.07;;
71902;SDS011;59778;50.310;18.780;2023-10-09T12:32:10;14.20;;;5.80;;
71902;SDS011;59778;50.310;18.780;2023-10-09T12:47:32;41.70;;;14.67;;
71902;SDS011;59778;50.310;18.780;2023-10-09T13:02:53;16.80;;;7.87;;
71902;SDS011;59778;50.310;18.780;2023-10-09T13:18:14;19.50;;;8.03;;
71902;SDS011;59778;50.310;18.780;2023-10-09T13:33:36;16.87;;;7.57;;
71902;SDS011;59778;50.310;18.780;2023-10-09T13:48:57;19.53;;;10.10;;
71902;SDS011;59778;50.310;18.780;2023-10-09T14:04:19;18.90;;;9.03;;
71902;SDS011;59778;50.310;18.780;2023-10-09T14:19:40;19.43;;;10.70;;
71902;SDS011;59778;50.310;18.780;2023-10-09T14:35:08;21.93;;;12.13;;
71902;SDS011;59778;50.310;18.780;2023-10-09T14:50:33;26.93;;;12.40;;
71902;SDS011;59778;50.310;18.780;2023-10-09T15:05:59;28.03;;;13.13;;
71902;SDS011;59778;50.310;18.780;2023-10-09T15:21:20;28.97;;;13.90;;
71902;SDS011;59778;50.310;18.780;2023-10-09T15:36:47;30.27;;;16.13;;
71902;SDS011;59778;50.310;18.780;2023-10-09T15:52:08;43.00;;;20.60;;
71902;SDS011;59778;50.310;18.780;2023-10-09T16:07:30;49.80;;;26.23;;
71902;SDS011;59778;50.310;18.780;2023-10-09T16:22:51;49.83;;;24.93;;
71902;SDS011;59778;50.310;18.780;2023-10-09T16:38:12;58.07;;;27.77;;
71902;SDS011;59778;50.310;18.780;2023-10-09T16:53:38;61.90;;;30.33;;
71902;SDS011;59778;50.310;18.780;2023-10-09T17:08:59;76.77;;;36.30;;
71902;SDS011;59778;50.310;18.780;2023-10-09T17:24:21;99.97;;;41.07;;
71902;SDS011;59778;50.310;18.780;2023-10-09T17:39:42;119.90;;;56.00;;
71902;SDS011;59778;50.310;18.780;2023-10-09T17:55:04;103.43;;;44.03;;
71902;SDS011;59778;50.310;18.780;2023-10-09T18:10:28;94.17;;;40.47;;
71902;SDS011;59778;50.310;18.780;2023-10-09T18:25:56;93.57;;;39.00;;
71902;SDS011;59778;50.310;18.780;2023-10-09T18:41:19;70.80;;;31.93;;
71902;SDS011;59778;50.310;18.780;2023-10-09T18:56:40;122.40;;;47.50;;
71902;SDS011;59778;50.310;18.780;2023-10-09T19:12:01;102.17;;;38.83;;
71902;SDS011;59778;50.310;18.780;2023-10-09T19:27:22;77.37;;;29.57;;
71902;SDS011;59778;50.310;18.780;2023-10-09T19:42:47;96.93;;;32.70;;
71902;SDS011;59778;50.310;18.780;2023-10-09T19:58:08;104.83;;;33.70;;
71902;SDS011;59778;50.310;18.780;2023-10-09T20:13:31;88.63;;;29.83;;
71902;SDS011;59778;50.310;18.780;2023-10-09T20:28:55;87.03;;;30.40;;
71902;SDS011;59778;50.310;18.780;2023-10-09T20:44:17;89.00;;;30.83;;
71902;SDS011;59778;50.310;18.780;2023-10-09T20:59:39;94.07;;;31.33;;
71902;SDS011;59778;50.310;18.780;2023-10-09T21:15:03;85.43;;;28.87;;
71902;SDS011;59778;50.310;18.780;2023-10-09T21:30:24;86.67;;;29.63;;
71902;SDS011;59778;50.310;18.780;2023-10-09T21:45:45;95.57;;;30.90;;
71902;SDS011;59778;50.310;18.780;2023-10-09T22:01:08;88.73;;;26.33;;
71902;SDS011;59778;50.310;18.780;2023-10-09T22:16:30;85.97;;;27.77;;
71902;SDS011;59778;50.310;18.780;2023-10-09T22:31:52;94.67;;;28.80;;
71902;SDS011;59778;50.310;18.780;2023-10-09T22:47:15;72.33;;;25.00;;
71902;SDS011;59778;50.310;18.780;2023-10-09T23:02:43;68.57;;;26.43;;
71902;SDS011;59778;50.310;18.780;2023-10-09T23:18:12;70.90;;;23.33;;
71902;SDS011;59778;50.310;18.780;2023-10-09T23:33:51;63.97;;;21.33;;
71902;SDS011;59778;50.310;18.780;2023-10-09T23:49:13;63.80;;;21.23;;
